Time;durP1;ratioP1;P1;durP2;ratioP2;P2;SDS_P1;SDS_P2;PMS_P1;PMS_P2;Temp;Humidity;BMP_temperature;BMP_pressure;BME280_temperature;BME280_humidity;BME280_pressure;Samples;Min_cycle;Max_cycle;Signal;HPM_P1;HPM_P2
2021/12/17 00:00:17;;;;;;;;;16.25;15.75;;;;;21.20;40.91;103351.84;5008345;28;51163;-55
2021/12/17 00:05:12;;;;;;;;;14.50;13.00;;;;;21.17;40.42;103349.44;5000346;28;51170;-52
2021/12/17 00:07:39;;;;;;;;;19.25;18.00;;;;;21.15;40.95;103352.31;5008698;28;51998;-53
2021/12/17 00:10:10;;;;;;;;;14.50;14.00;;;;;21.12;40.88;103352.66;5012511;28;51134;-52
2021/12/17 00:12:35;;;;;;;;;17.00;14.25;;;;;21.11;40.76;103345.44;5005279;28;51414;-54
2021/12/17 00:15:04;;;;;;;;;16.00;14.25;;;;;21.11;40.62;103348.19;5019101;28;51069;-48
2021/12/17 00:17:35;;;;;;;;;17.50;16.25;;;;;21.09;41.05;103339.22;5015262;28;51966;-49
2021/12/17 00:50:46;;;;;;;;;13.50;12.75;;;;;20.91;40.90;103333.81;5020623;28;52001;-53
2021/12/17 00:52:39;;;;;;;;;12.00;11.50;;;;;20.90;40.55;103329.31;5000731;28;51334;-55
2021/12/17 00:55:07;;;;;;;;;17.00;14.75;;;;;20.90;40.71;103320.19;5007734;28;51289;-54
2021/12/17 00:57:41;;;;;;;;;15.00;13.25;;;;;20.87;41.00;103321.41;5007204;28;51309;-55
2021/12/17 01:00:11;;;;;;;;;9.75;9.00;;;;;20.86;41.09;103319.69;5007899;28;51776;-55
2021/12/17 01:02:39;;;;;;;;;15.50;12.50;;;;;20.86;40.81;103321.56;5010908;28;51435;-53
2021/12/17 01:05:12;;;;;;;;;15.00;13.00;;;;;20.83;40.43;103320.00;5007723;28;51053;-55
2021/12/17 01:07:41;;;;;;;;;19.25;13.75;;;;;20.84;40.57;103318.09;5004981;28;51284;-54
2021/12/17 01:10:11;;;;;;;;;17.25;15.75;;;;;20.82;40.72;103320.16;5020724;28;51044;-53
2021/12/17 01:12:36;;;;;;;;;13.50;12.25;;;;;20.81;40.67;103324.81;5008401;28;51317;-52
2021/12/17 01:15:09;;;;;;;;;17.25;15.00;;;;;20.80;40.92;103322.22;5006177;28;51190;-54
2021/12/17 01:17:38;;;;;;;;;14.25;12.00;;;;;20.79;40.59;103320.50;5013464;28;51027;-52
2021/12/17 01:25:35;;;;;;;;;12.25;11.75;;;;;20.74;41.02;103321.00;5009519;28;51315;-51
2021/12/17 01:36:15;;;;;;;;;14.25;12.50;;;;;20.70;40.72;103316.84;5012170;28;51128;-54
2021/12/17 01:44:06;;;;;;;;;15.75;15.75;;;;;20.67;40.56;103322.69;5004932;28;51581;-53
2021/12/17 01:46:34;;;;;;;;;17.00;13.75;;;;;20.66;40.70;103321.81;5014027;28;51278;-52
2021/12/17 02:00:05;;;;;;;;;13.00;13.00;;;;;20.59;40.65;103306.97;5000022;28;51259;-53
2021/12/17 02:02:37;;;;;;;;;14.00;12.50;;;;;20.60;40.94;103313.34;5017263;28;51261;-52
2021/12/17 02:05:03;;;;;;;;;14.75;14.75;;;;;20.59;40.94;103312.47;5013255;28;51148;-53
2021/12/17 02:07:29;;;;;;;;;16.50;12.25;;;;;20.57;40.89;103305.41;5012675;28;51437;-52
2021/12/17 02:32:00;;;;;;;;;15.50;13.00;;;;;20.49;41.19;103308.13;5021480;28;51055;-60
2021/12/17 02:34:47;;;;;;;;;14.25;13.00;;;;;20.48;40.81;103315.50;5010656;28;51119;-54
2021/12/17 02:37:17;;;;;;;;;14.00;12.00;;;;;20.45;41.02;103311.19;5009557;28;51454;-53
2021/12/17 02:47:41;;;;;;;;;13.75;12.00;;;;;20.42;41.14;103302.34;5012001;28;51157;-54
2021/12/17 02:50:10;;;;;;;;;12.25;10.50;;;;;20.42;41.11;103302.34;5013539;28;51440;-52
2021/12/17 02:52:37;;;;;;;;;14.50;11.75;;;;;20.41;40.97;103303.38;5013368;28;51097;-53
2021/12/17 02:55:05;;;;;;;;;10.75;10.00;;;;;20.40;40.88;103294.25;5007832;28;52169;-52
2021/12/17 02:57:31;;;;;;;;;11.50;10.75;;;;;20.39;41.02;103297.19;5010499;28;51220;-52
2021/12/17 02:59:57;;;;;;;;;13.00;12.25;;;;;20.38;40.87;103300.97;5013839;28;51295;-54
2021/12/17 03:02:26;;;;;;;;;15.25;12.50;;;;;20.38;41.06;103289.94;5013515;28;51403;-54
2021/12/17 03:04:52;;;;;;;;;10.00;10.00;;;;;20.37;40.84;103293.72;5008309;28;51947;-54
2021/12/17 03:07:17;;;;;;;;;12.75;12.75;;;;;20.36;41.10;103298.38;5006350;28;51080;-53
2021/12/17 03:12:26;;;;;;;;;12.75;11.25;;;;;20.35;41.25;103284.78;5027249;28;51516;-53
2021/12/17 03:15:00;;;;;;;;;10.25;10.25;;;;;20.36;41.17;103286.50;5012793;28;52748;-51
2021/12/17 03:25:31;;;;;;;;;15.75;14.00;;;;;20.31;40.74;103284.22;5011643;28;51617;-54
2021/12/17 03:27:57;;;;;;;;;10.75;9.00;;;;;20.31;40.71;103275.09;5012154;28;51108;-54
2021/12/17 03:30:23;;;;;;;;;12.50;10.50;;;;;20.29;41.09;103283.53;5010839;28;51201;-52
2021/12/17 03:32:48;;;;;;;;;12.75;10.50;;;;;20.29;40.88;103279.91;5010096;28;51429;-53
2021/12/17 03:35:13;;;;;;;;;10.00;10.00;;;;;20.29;40.98;103286.28;5016154;28;51763;-53
2021/12/17 03:37:39;;;;;;;;;13.25;10.25;;;;;20.28;41.07;103294.69;5009371;28;51231;-51
2021/12/17 03:40:04;;;;;;;;;10.00;10.00;;;;;20.27;41.03;103285.59;5011539;28;51144;-53
2021/12/17 03:42:30;;;;;;;;;11.75;11.50;;;;;20.25;41.26;103295.03;5012958;28;51191;-54
2021/12/17 03:44:55;;;;;;;;;15.00;12.00;;;;;20.25;41.15;103293.16;5005526;28;51905;-55
2021/12/17 03:47:20;;;;;;;;;12.75;12.50;;;;;20.24;40.75;103294.19;5011097;28;51138;-54
2021/12/17 03:49:46;;;;;;;;;11.50;11.25;;;;;20.24;41.12;103291.41;5004511;28;51526;-53
2021/12/17 03:52:16;;;;;;;;;11.00;10.50;;;;;20.23;41.19;103295.19;5013732;28;51137;-55
2021/12/17 03:54:41;;;;;;;;;14.75;13.00;;;;;20.22;41.13;103285.22;5005022;28;52781;-54
2021/12/17 03:57:10;;;;;;;;;12.75;12.75;;;;;20.22;41.03;103296.22;5014753;28;51035;-54
2021/12/17 03:59:35;;;;;;;;;12.25;11.50;;;;;20.22;40.97;103295.34;5022094;28;51111;-51
2021/12/17 04:02:01;;;;;;;;;12.50;12.50;;;;;20.20;41.11;103301.00;5015662;28;51263;-54
2021/12/17 04:04:26;;;;;;;;;10.50;10.50;;;;;20.21;40.85;103294.47;5009642;28;51801;-54
2021/12/17 04:06:51;;;;;;;;;11.50;11.00;;;;;20.19;40.83;103305.66;5006932;28;51099;-52
2021/12/17 04:09:20;;;;;;;;;9.75;9.50;;;;;20.19;41.27;103302.91;5002284;28;51089;-54
2021/12/17 04:11:46;;;;;;;;;10.25;9.50;;;;;20.18;40.97;103301.16;5006198;28;51491;-53
2021/12/17 04:14:13;;;;;;;;;13.25;11.25;;;;;20.17;41.19;103293.09;5005533;28;51933;-52
2021/12/17 04:16:38;;;;;;;;;10.75;10.75;;;;;20.14;41.32;103288.78;5009727;28;51129;-55
2021/12/17 04:19:04;;;;;;;;;9.75;9.75;;;;;20.15;41.42;103290.50;5011251;28;51192;-54
2021/12/17 04:21:29;;;;;;;;;12.00;9.25;;;;;20.14;41.00;103294.28;5014878;28;51426;-54
2021/12/17 04:23:55;;;;;;;;;11.50;10.50;;;;;20.13;41.16;103292.56;5012829;28;52954;-54
2021/12/17 04:26:22;;;;;;;;;12.50;12.00;;;;;20.13;41.09;103289.81;5014157;28;51228;-53
2021/12/17 04:28:51;;;;;;;;;14.75;13.00;;;;;20.12;40.85;103282.56;5011286;28;51373;-52
2021/12/17 04:31:23;;;;;;;;;13.75;11.75;;;;;20.11;41.18;103290.97;5023941;28;51313;-52
2021/12/17 04:33:49;;;;;;;;;13.25;11.50;;;;;20.11;41.13;103279.97;5014340;28;51203;-50
2021/12/17 04:36:21;;;;;;;;;10.00;10.00;;;;;20.10;40.80;103283.75;5001121;28;51092;-51
2021/12/17 04:38:47;;;;;;;;;13.25;10.00;;;;;20.10;40.93;103281.84;5024892;28;51440;-54
2021/12/17 04:59:44;;;;;;;;;13.75;12.50;;;;;20.05;41.16;103284.22;5004937;28;51025;-58
2021/12/17 05:02:09;;;;;;;;;14.00;11.00;;;;;20.04;41.26;103278.91;5010680;28;51169;-51
2021/12/17 05:04:35;;;;;;;;;10.75;10.00;;;;;20.03;41.44;103285.44;5002435;28;51579;-54
2021/12/17 05:07:00;;;;;;;;;10.00;8.50;;;;;20.03;40.90;103277.19;5014516;28;51547;-53
2021/12/17 05:09:34;;;;;;;;;13.50;12.25;;;;;20.02;41.32;103283.72;5008129;28;51301;-51
2021/12/17 05:20:27;;;;;;;;;9.75;9.75;;;;;20.00;41.28;103283.84;5003239;28;51104;-50
2021/12/17 05:22:57;;;;;;;;;11.75;10.50;;;;;19.99;41.35;103284.00;5012587;28;51035;-55
2021/12/17 05:25:26;;;;;;;;;9.25;9.25;;;;;19.99;41.10;103281.25;5005452;28;51859;-54
2021/12/17 05:27:59;;;;;;;;;11.75;10.25;;;;;19.99;40.96;103284.00;5005204;28;51408;-54
2021/12/17 05:30:25;;;;;;;;;11.00;10.00;;;;;19.98;41.17;103283.13;5014194;28;51013;-52
2021/12/17 05:32:50;;;;;;;;;11.00;9.00;;;;;19.98;41.38;103288.63;5012415;28;51437;-55
2021/12/17 05:35:15;;;;;;;;;9.75;9.00;;;;;19.96;41.13;103282.44;5011138;28;52922;-53
2021/12/17 05:37:41;;;;;;;;;10.50;8.50;;;;;19.97;41.14;103275.06;5016247;28;51029;-51
2021/12/17 05:40:07;;;;;;;;;9.50;8.00;;;;;19.96;41.15;103279.69;5016225;28;51291;-52
2021/12/17 05:42:32;;;;;;;;;10.25;10.25;;;;;19.96;41.34;103267.81;5004899;28;51092;-55
2021/12/17 05:45:06;;;;;;;;;7.50;7.50;;;;;19.96;41.13;103276.06;5013044;28;51104;-52
2021/12/17 05:47:32;;;;;;;;;8.25;8.25;;;;;19.95;41.47;103268.84;5010448;28;51314;-52
2021/12/17 05:49:57;;;;;;;;;7.00;7.00;;;;;19.94;40.98;103273.50;5007073;28;51140;-52
2021/12/17 05:52:22;;;;;;;;;7.25;6.75;;;;;19.94;41.38;103272.63;5015708;28;51305;-54
2021/12/17 05:54:48;;;;;;;;;9.75;8.00;;;;;19.93;41.04;103271.78;5035707;28;51439;-52
2021/12/17 05:57:13;;;;;;;;;10.25;7.00;;;;;19.93;41.60;103273.66;5007366;28;51144;-53
2021/12/17 05:59:39;;;;;;;;;9.25;8.75;;;;;19.94;41.29;103269.88;5007130;28;51129;-54
2021/12/17 06:02:09;;;;;;;;;9.50;8.50;;;;;19.92;41.35;103270.03;5006215;28;51133;-51
2021/12/17 06:04:35;;;;;;;;;6.00;6.00;;;;;19.92;41.04;103271.94;5008096;28;52298;-51
2021/12/17 06:07:00;;;;;;;;;10.00;8.50;;;;;19.91;41.64;103268.31;5017592;28;51168;-53
2021/12/17 06:09:25;;;;;;;;;9.75;9.75;;;;;19.91;41.17;103284.81;5004023;28;51024;-53
2021/12/17 06:11:51;;;;;;;;;21.00;16.25;;;;;19.89;40.75;103284.97;5003417;28;51186;-52
2021/12/17 06:14:16;;;;;;;;;23.00;18.75;;;;;19.87;40.62;103280.66;5001030;28;54422;-51
2021/12/17 06:16:42;;;;;;;;;29.00;22.25;;;;;19.83;40.33;103284.75;5017754;28;51227;-54
2021/12/17 06:19:09;;;;;;;;;24.50;23.50;;;;;19.78;40.13;103282.47;5009413;28;51139;-53
2021/12/17 06:21:34;;;;;;;;;22.75;22.00;;;;;19.75;39.60;103281.94;5008496;28;51304;-53
2021/12/17 06:23:59;;;;;;;;;27.00;24.50;;;;;19.69;39.60;103290.78;5004480;28;51262;-53
2021/12/17 06:26:25;;;;;;;;;23.00;22.25;;;;;19.63;39.75;103288.69;5016107;28;51108;-52
2021/12/17 06:28:50;;;;;;;;;25.75;23.75;;;;;19.58;39.69;103283.66;5010421;28;51229;-54
2021/12/17 06:31:20;;;;;;;;;25.25;21.00;;;;;19.53;39.42;103292.34;5009622;28;51119;-54
2021/12/17 06:33:46;;;;;;;;;29.00;24.75;;;;;19.48;39.74;103282.84;5014401;28;51967;-55
2021/12/17 06:36:12;;;;;;;;;25.75;22.25;;;;;19.43;39.71;103280.56;5002481;28;51759;-53
2021/12/17 06:38:37;;;;;;;;;24.50;21.00;;;;;19.38;39.58;103288.41;5013722;28;52361;-54
2021/12/17 06:41:03;;;;;;;;;20.50;18.25;;;;;19.35;40.26;103280.47;4999181;28;51103;-54
2021/12/17 06:43:36;;;;;;;;;22.50;19.50;;;;;19.33;40.08;103286.16;5005377;28;51320;-54
2021/12/17 06:46:17;;;;;;;;;19.75;18.00;;;;;19.36;40.62;103282.22;5006386;28;51156;-52
2021/12/17 06:48:43;;;;;;;;;19.50;16.75;;;;;19.41;40.81;103288.13;5011627;28;51572;-54
2021/12/17 06:59:11;;;;;;;;;16.00;14.50;;;;;19.70;41.48;103287.06;5004868;28;51304;-55
2021/12/17 07:17:56;;;;;;;;;9.50;9.50;;;;;20.24;42.36;103282.31;5011556;28;51497;-51
2021/12/17 07:23:16;;;;;;;;;8.50;7.50;;;;;20.38;42.75;103301.81;5014544;28;51221;-50
2021/12/17 07:33:39;;;;;;;;;9.25;8.25;;;;;20.57;42.38;103306.28;5006785;28;51126;-50
2021/12/17 07:36:14;;;;;;;;;10.00;9.75;;;;;20.56;43.03;103310.06;5000443;28;51188;-49
2021/12/17 07:38:47;;;;;;;;;8.75;8.25;;;;;20.55;42.26;103305.56;5019031;28;51544;-49
2021/12/17 07:41:13;;;;;;;;;10.00;9.50;;;;;20.54;42.70;103306.63;5016426;28;51069;-50
2021/12/17 07:43:40;;;;;;;;;11.00;10.25;;;;;20.55;42.42;103312.97;5019506;28;51116;-48
2021/12/17 07:46:09;;;;;;;;;10.75;10.50;;;;;20.59;42.39;103314.38;5017590;28;52277;-54
2021/12/17 07:48:36;;;;;;;;;13.00;10.50;;;;;20.64;42.84;103312.00;5015562;28;51343;-53
2021/12/17 07:51:04;;;;;;;;;12.25;10.50;;;;;20.69;42.69;103313.22;5009847;28;51220;-57
2021/12/17 07:53:34;;;;;;;;;13.50;13.50;;;;;20.73;42.57;103316.50;5004801;28;51806;-49
2021/12/17 07:56:01;;;;;;;;;12.00;10.25;;;;;20.73;42.53;103316.50;5015800;28;51663;-53
2021/12/17 07:58:28;;;;;;;;;11.75;11.00;;;;;20.71;42.71;103307.53;5009725;28;52153;-52
2021/12/17 08:00:53;;;;;;;;;16.00;12.75;;;;;20.70;42.15;103312.19;5010540;28;51536;-52
2021/12/17 08:03:19;;;;;;;;;13.25;13.25;;;;;20.67;42.57;103306.16;5006046;28;51062;-48
2021/12/17 08:05:44;;;;;;;;;13.25;12.25;;;;;20.63;42.21;103302.84;5001473;28;51817;-53
2021/12/17 08:08:10;;;;;;;;;15.00;12.25;;;;;20.60;42.31;103300.44;5003162;28;51354;-51
2021/12/17 08:10:36;;;;;;;;;13.25;12.50;;;;;20.58;42.00;103293.38;5007705;28;51335;-50
2021/12/17 08:13:02;;;;;;;;;13.50;9.50;;;;;20.56;42.59;103287.16;5010672;28;51174;-54
2021/12/17 08:15:36;;;;;;;;;12.50;9.00;;;;;20.52;42.26;103294.88;5012579;28;51098;-52
2021/12/17 08:23:57;;;;;;;;;6.00;6.00;;;;;20.43;42.18;103312.41;5010871;28;51140;-55
2021/12/17 08:26:13;;;;;;;;;9.50;8.75;;;;;20.40;42.59;103310.78;5006169;28;51244;-54
2021/12/17 08:31:27;;;;;;;;;10.25;9.00;;;;;20.35;42.17;103307.66;4990260;28;51194;-53
2021/12/17 08:33:52;;;;;;;;;8.25;8.25;;;;;20.33;42.00;103315.22;5001798;28;51685;-53
2021/12/17 08:36:18;;;;;;;;;8.25;8.25;;;;;20.32;42.15;103312.59;4996790;28;51460;-53
2021/12/17 08:38:46;;;;;;;;;8.00;8.00;;;;;20.29;42.29;103319.31;5003874;28;51081;-54
2021/12/17 08:41:13;;;;;;;;;9.00;8.50;;;;;20.28;42.24;103311.22;5002427;28;51148;-54
2021/12/17 08:43:41;;;;;;;;;9.50;7.25;;;;;20.25;42.76;103309.66;5008653;28;51425;-50
2021/12/17 08:46:07;;;;;;;;;8.50;8.50;;;;;20.23;42.23;103319.97;5008089;28;51195;-54
2021/12/17 08:48:32;;;;;;;;;8.25;8.25;;;;;20.20;42.23;103309.25;5006847;28;51138;-51
2021/12/17 08:50:58;;;;;;;;;8.25;7.75;;;;;20.18;42.15;103314.94;5009450;28;51129;-53
2021/12/17 08:53:23;;;;;;;;;9.00;8.00;;;;;20.17;42.43;103312.34;4997250;28;51264;-52
2021/12/17 08:55:49;;;;;;;;;8.00;8.00;;;;;20.14;42.31;103304.41;5003849;28;51843;-53
2021/12/17 08:58:14;;;;;;;;;6.75;6.75;;;;;20.11;42.46;103311.13;5005011;28;51014;-52
2021/12/17 09:00:41;;;;;;;;;8.25;8.25;;;;;20.10;42.45;103309.38;5004689;28;51111;-52
2021/12/17 09:03:09;;;;;;;;;10.00;9.50;;;;;20.10;42.44;103319.50;4997995;28;51187;-53
2021/12/17 09:05:38;;;;;;;;;8.00;8.00;;;;;20.11;42.17;103312.97;5002771;28;51923;-54
2021/12/17 09:08:09;;;;;;;;;10.50;8.75;;;;;20.17;42.55;103315.97;5006636;28;51842;-53
2021/12/17 09:10:35;;;;;;;;;10.00;8.00;;;;;20.25;42.43;103328.06;5006789;28;51262;-51
2021/12/17 09:13:00;;;;;;;;;6.50;6.50;;;;;20.34;42.86;103322.47;5002954;28;51296;-51
2021/12/17 09:15:26;;;;;;;;;14.00;8.25;;;;;20.42;42.74;103327.13;5005949;28;52020;-53
2021/12/17 09:17:52;;;;;;;;;9.25;7.00;;;;;20.52;42.83;103330.66;4997256;28;51412;-53
2021/12/17 09:20:17;;;;;;;;;8.25;8.25;;;;;20.59;42.42;103331.75;4997600;28;51173;-53
2021/12/17 09:22:43;;;;;;;;;7.50;7.50;;;;;20.68;42.45;103333.53;5002628;28;51146;-54
2021/12/17 09:25:08;;;;;;;;;9.00;6.00;;;;;20.77;42.51;103333.56;5005966;28;51302;-53
2021/12/17 09:27:34;;;;;;;;;8.75;7.50;;;;;20.84;42.53;103331.88;5005519;28;51275;-54
2021/12/17 09:29:59;;;;;;;;;7.50;7.50;;;;;20.91;42.33;103332.94;5002207;28;51407;-51
2021/12/17 09:32:25;;;;;;;;;10.75;8.25;;;;;20.98;42.58;103340.38;5002681;28;51855;-52
2021/12/17 09:34:50;;;;;;;;;6.00;6.00;;;;;21.06;42.29;103339.56;5007435;28;51921;-50
2021/12/17 09:37:17;;;;;;;;;5.25;5.25;;;;;21.11;42.93;103347.31;4998982;28;51633;-53
2021/12/17 09:39:43;;;;;;;;;10.00;7.00;;;;;21.10;42.66;103351.09;5000739;28;50955;-50
2021/12/17 09:42:08;;;;;;;;;8.50;6.75;;;;;21.10;42.56;103343.72;5004000;28;51103;-52
2021/12/17 09:44:34;;;;;;;;;8.50;7.75;;;;;21.10;42.00;103354.72;5000551;28;52804;-52
2021/12/17 09:47:00;;;;;;;;;6.25;5.50;;;;;21.11;42.44;103353.69;5001777;28;51304;-50
2021/12/17 09:49:26;;;;;;;;;8.00;7.25;;;;;21.16;42.36;103365.09;4998041;28;51217;-53
2021/12/17 09:51:52;;;;;;;;;7.50;6.50;;;;;21.23;42.51;103365.28;5002926;28;51307;-53
2021/12/17 09:54:18;;;;;;;;;7.00;6.25;;;;;21.28;42.10;103355.53;4999009;28;51969;-52
2021/12/17 09:56:44;;;;;;;;;7.50;7.00;;;;;21.32;42.06;103359.66;5001383;28;51042;-53
2021/12/17 09:59:10;;;;;;;;;7.75;6.00;;;;;21.32;42.65;103367.94;5001220;28;51134;-50
2021/12/17 10:01:40;;;;;;;;;8.00;6.00;;;;;21.31;42.38;103363.44;4996681;28;51413;-52
2021/12/17 10:04:11;;;;;;;;;5.75;4.00;;;;;21.31;42.40;103362.59;4996908;28;51453;-52
2021/12/17 10:06:37;;;;;;;;;7.25;7.25;;;;;21.31;42.23;103370.84;5001338;28;51192;-50
2021/12/17 10:09:02;;;;;;;;;8.75;6.00;;;;;21.32;42.05;103364.31;4998163;28;51245;-52
2021/12/17 10:11:28;;;;;;;;;6.00;6.00;;;;;21.38;42.23;103360.03;4998168;28;51225;-52
2021/12/17 10:13:53;;;;;;;;;8.50;6.50;;;;;21.43;42.22;103354.88;5006876;28;52605;-53
2021/12/17 10:16:20;;;;;;;;;8.25;7.00;;;;;21.48;41.91;103355.25;4998034;28;51309;-53
2021/12/17 10:18:49;;;;;;;;;7.00;7.00;;;;;21.51;42.15;103346.63;5005016;28;51157;-53
2021/12/17 10:21:20;;;;;;;;;6.25;6.25;;;;;21.52;42.29;103351.09;4999537;28;52004;-53
2021/12/17 10:23:46;;;;;;;;;8.75;6.75;;;;;21.49;41.95;103341.28;5007811;28;53767;-52
2021/12/17 10:26:14;;;;;;;;;7.50;7.00;;;;;21.48;42.12;103345.06;5001353;28;51150;-50
2021/12/17 10:29:01;;;;;;;;;6.00;5.25;;;;;21.45;42.08;103339.00;4998594;28;51289;-53
2021/12/17 10:31:29;;;;;;;;;8.25;7.00;;;;;21.43;41.94;103333.66;5000378;28;51194;-54
2021/12/17 10:33:59;;;;;;;;;5.00;5.00;;;;;21.45;41.85;103333.50;4999069;28;51125;-54
2021/12/17 10:36:33;;;;;;;;;6.00;5.00;;;;;21.48;42.03;103333.19;4998164;28;51314;-52
2021/12/17 10:39:01;;;;;;;;;6.00;5.25;;;;;21.52;41.91;103329.03;5003773;28;51096;-53
2021/12/17 10:41:27;;;;;;;;;6.00;5.00;;;;;21.55;41.71;103320.41;5000102;28;51281;-54
2021/12/17 10:43:58;;;;;;;;;5.75;5.75;;;;;21.55;41.85;103313.00;4996821;28;51786;-52
2021/12/17 10:46:32;;;;;;;;;9.50;8.25;;;;;21.53;42.07;103315.06;5001890;28;50987;-52
2021/12/17 10:54:06;;;;;;;;;6.75;5.50;;;;;21.51;41.94;103317.13;5002495;28;51731;-53
2021/12/17 10:56:52;;;;;;;;;5.50;5.50;;;;;21.57;42.03;103305.44;4998183;28;51192;-52
2021/12/17 10:59:22;;;;;;;;;6.75;6.75;;;;;21.60;41.90;103296.81;5003236;28;51326;-54
2021/12/17 11:02:05;;;;;;;;;6.25;6.00;;;;;21.67;41.65;103287.84;5002179;28;50932;-55
2021/12/17 11:04:32;;;;;;;;;6.50;4.75;;;;;21.69;42.14;103283.91;5004280;28;51781;-53
2021/12/17 11:07:01;;;;;;;;;5.00;5.00;;;;;21.68;41.88;103282.19;5000277;28;51110;-53
2021/12/17 11:09:51;;;;;;;;;7.75;6.00;;;;;21.66;42.02;103270.44;5004507;28;51223;-50
2021/12/17 11:12:34;;;;;;;;;6.00;5.50;;;;;21.66;41.67;103280.59;4999350;28;51141;-53
2021/12/17 11:15:21;;;;;;;;;5.50;5.50;;;;;21.61;41.70;103282.00;4996316;28;51020;-50
2021/12/17 11:17:50;;;;;;;;;10.50;6.75;;;;;21.58;42.15;103281.47;5003642;28;51421;-53
2021/12/17 11:20:39;;;;;;;;;6.50;5.25;;;;;21.63;41.63;103281.81;4996845;28;52668;-53
2021/12/17 11:23:11;;;;;;;;;5.00;5.00;;;;;21.67;41.86;103272.16;4998665;28;51553;-52
2021/12/17 11:25:38;;;;;;;;;9.75;5.75;;;;;21.75;41.88;103260.25;5014713;28;54292;-53
2021/12/17 11:28:07;;;;;;;;;7.00;6.00;;;;;21.81;41.61;103259.59;5000468;28;51461;-54
2021/12/17 11:30:34;;;;;;;;;5.00;5.00;;;;;21.82;41.74;103253.88;5006843;28;51189;-52
2021/12/17 11:33:01;;;;;;;;;6.00;6.00;;;;;21.80;41.42;103249.59;5000792;28;51241;-52
2021/12/17 11:35:28;;;;;;;;;7.75;5.00;;;;;21.76;41.61;103242.66;5004610;28;51057;-53
2021/12/17 11:37:58;;;;;;;;;6.00;5.25;;;;;21.72;41.70;103246.81;5002544;28;51174;-50
2021/12/17 11:40:52;;;;;;;;;6.25;6.25;;;;;21.70;41.64;103244.25;5002594;28;51154;-49
2021/12/17 11:43:48;;;;;;;;;5.75;4.75;;;;;21.70;41.17;103243.38;5007012;28;51342;-53
2021/12/17 11:46:14;;;;;;;;;5.50;5.50;;;;;21.70;41.43;103241.47;5005676;28;52165;-52
2021/12/17 11:48:48;;;;;;;;;6.00;4.50;;;;;21.73;41.48;103243.88;5013621;28;51047;-53
2021/12/17 11:51:16;;;;;;;;;8.00;6.75;;;;;21.77;42.11;103239.72;5007219;28;51242;-53
2021/12/17 11:53:54;;;;;;;;;8.00;8.00;;;;;21.81;42.26;103235.59;5003852;28;51319;-50
2021/12/17 11:56:34;;;;;;;;;4.00;4.00;;;;;21.82;42.23;103237.34;5011213;28;51904;-51
2021/12/17 11:59:00;;;;;;;;;7.00;6.25;;;;;21.81;42.35;103232.84;5005120;28;51039;-53
2021/12/17 12:01:47;;;;;;;;;7.00;6.25;;;;;21.80;41.60;103222.00;5006376;28;51222;-52
2021/12/17 12:04:40;;;;;;;;;8.50;7.75;;;;;21.78;42.01;103235.97;5004337;28;51453;-53
2021/12/17 12:07:08;;;;;;;;;9.25;8.00;;;;;21.78;42.06;103218.53;5004778;28;50998;-51
2021/12/17 12:09:55;;;;;;;;;8.00;8.00;;;;;21.79;41.63;103232.16;4996067;28;51268;-52
2021/12/17 12:12:21;;;;;;;;;9.50;6.75;;;;;21.83;41.96;103221.63;5006665;28;52496;-51
2021/12/17 12:14:47;;;;;;;;;7.50;6.25;;;;;21.88;42.16;103219.19;5005775;28;51378;-53
2021/12/17 12:17:12;;;;;;;;;7.00;6.00;;;;;21.89;41.94;103212.66;4995284;28;51729;-53
2021/12/17 12:19:48;;;;;;;;;8.00;8.00;;;;;21.87;41.79;103210.06;4998737;28;51081;-54
2021/12/17 12:22:14;;;;;;;;;6.25;5.00;;;;;21.85;41.88;103214.91;4998909;28;50927;-52
2021/12/17 12:24:39;;;;;;;;;6.00;6.00;;;;;21.84;41.51;103206.81;5000960;28;51723;-52
2021/12/17 12:27:05;;;;;;;;;8.75;8.25;;;;;21.82;42.34;103203.38;5009015;28;51767;-51
2021/12/17 12:29:30;;;;;;;;;11.50;9.50;;;;;21.78;41.78;103204.72;4997483;28;52234;-50
2021/12/17 12:32:17;;;;;;;;;7.25;5.50;;;;;21.76;41.68;103202.16;5006947;28;51077;-52
2021/12/17 12:34:43;;;;;;;;;9.50;7.00;;;;;21.80;41.54;103205.44;4995601;28;51941;-52
2021/12/17 12:37:10;;;;;;;;;9.00;8.00;;;;;21.85;41.98;103198.34;5004017;28;51101;-53
2021/12/17 12:39:43;;;;;;;;;9.00;8.00;;;;;21.92;42.01;103197.66;5005467;28;51355;-51
2021/12/17 12:42:32;;;;;;;;;8.00;7.00;;;;;21.96;41.91;103199.88;5006863;28;51272;-51
2021/12/17 12:44:57;;;;;;;;;7.75;5.00;;;;;21.97;41.83;103201.59;5000355;28;51047;-52
2021/12/17 12:47:26;;;;;;;;;6.50;6.50;;;;;21.95;41.79;103192.63;4996755;28;51578;-54
2021/12/17 12:50:02;;;;;;;;;9.50;8.00;;;;;21.91;41.75;103183.00;5006795;28;51093;-52
2021/12/17 12:52:36;;;;;;;;;6.75;5.50;;;;;21.89;41.69;103179.56;4999840;28;51305;-54
2021/12/17 12:55:13;;;;;;;;;7.00;6.25;;;;;21.88;41.52;103180.56;5004144;28;51055;-51
2021/12/17 12:57:43;;;;;;;;;8.25;6.25;;;;;21.86;41.88;103171.59;5002297;28;51266;-50
2021/12/17 13:00:14;;;;;;;;;7.00;7.00;;;;;21.88;41.69;103175.94;4998326;28;51019;-52
2021/12/17 13:02:42;;;;;;;;;5.50;5.50;;;;;21.93;41.73;103169.88;5001720;28;51022;-51
2021/12/17 13:05:09;;;;;;;;;6.00;6.00;;;;;21.97;41.65;103170.38;5004911;28;51335;-51
2021/12/17 13:07:40;;;;;;;;;6.75;5.00;;;;;22.00;42.34;103173.66;4999190;28;51926;-49
2021/12/17 13:10:13;;;;;;;;;7.50;5.50;;;;;22.01;42.24;103175.38;4999648;28;51307;-48
2021/12/17 13:12:40;;;;;;;;;6.75;6.50;;;;;21.99;41.74;103171.06;5010439;28;51136;-53
2021/12/17 13:15:33;;;;;;;;;6.50;6.50;;;;;21.95;42.23;103169.69;5003238;28;51263;-53
2021/12/17 13:23:34;;;;;;;;;8.25;6.00;;;;;21.90;41.62;103170.25;5003381;28;51296;-49
2021/12/17 13:26:11;;;;;;;;;5.50;5.50;;;;;21.93;42.16;103177.31;5010367;28;51200;-47
2021/12/17 13:29:05;;;;;;;;;7.75;5.75;;;;;21.96;42.30;103172.28;5003709;28;51140;-54
2021/12/17 13:31:34;;;;;;;;;7.50;7.50;;;;;22.02;42.14;103167.97;5005829;28;51422;-51
2021/12/17 13:34:00;;;;;;;;;5.25;5.25;;;;;22.05;42.20;103175.88;5003248;28;51147;-51
2021/12/17 13:36:26;;;;;;;;;8.00;7.00;;;;;22.03;42.22;103169.69;5010124;28;51318;-52
2021/12/17 13:38:58;;;;;;;;;7.00;6.00;;;;;22.00;42.55;103165.38;4998910;28;52033;-47
2021/12/17 13:41:41;;;;;;;;;6.75;6.50;;;;;21.96;42.08;103175.03;5006049;28;51436;-50
2021/12/17 13:44:36;;;;;;;;;7.75;6.25;;;;;21.94;41.71;103177.13;5000365;28;51084;-48
2021/12/17 13:47:20;;;;;;;;;5.75;5.25;;;;;21.93;41.91;103163.50;4997689;28;51189;-51
2021/12/17 13:50:08;;;;;;;;;6.75;6.00;;;;;21.92;41.99;103168.16;4999487;28;51453;-54
2021/12/17 13:52:37;;;;;;;;;6.25;5.75;;;;;21.97;41.97;103156.56;5005134;28;51459;-53
2021/12/17 13:55:06;;;;;;;;;6.00;5.00;;;;;22.02;41.98;103156.94;4996286;28;51315;-51
2021/12/17 13:57:32;;;;;;;;;7.00;7.00;;;;;22.07;42.20;103149.84;4993337;28;51540;-53
2021/12/17 14:00:08;;;;;;;;;5.25;5.25;;;;;22.12;42.55;103150.19;4997164;28;51210;-47
2021/12/17 14:02:36;;;;;;;;;4.50;4.50;;;;;22.11;42.05;103148.47;4998386;28;51065;-51
2021/12/17 14:05:13;;;;;;;;;6.00;5.50;;;;;22.08;42.65;103142.44;4994412;28;51232;-51
2021/12/17 14:07:39;;;;;;;;;6.75;5.00;;;;;22.05;42.53;103151.03;4999611;28;51311;-52
2021/12/17 14:10:16;;;;;;;;;4.50;4.50;;;;;22.05;42.34;103151.03;4995650;28;51386;-51
2021/12/17 14:12:43;;;;;;;;;7.00;6.00;;;;;22.04;42.35;103155.69;4993586;28;51022;-52
2021/12/17 14:15:12;;;;;;;;;6.00;6.00;;;;;22.03;42.02;103156.75;4998448;28;51245;-52
2021/12/17 14:17:40;;;;;;;;;5.75;5.75;;;;;22.04;42.09;103155.69;5001106;28;51297;-53
2021/12/17 14:20:10;;;;;;;;;5.25;4.00;;;;;22.06;42.19;103158.28;4999917;28;52649;-53
2021/12/17 14:22:38;;;;;;;;;6.25;6.25;;;;;22.13;42.03;103151.06;4996304;28;53031;-51
2021/12/17 14:25:24;;;;;;;;;5.25;5.25;;;;;22.19;42.12;103145.66;4994768;28;50955;-53
2021/12/17 14:27:50;;;;;;;;;4.75;4.50;;;;;22.25;41.93;103138.56;4997853;28;51468;-52
2021/12/17 14:30:16;;;;;;;;;5.75;5.75;;;;;22.26;42.05;103143.06;4998348;28;51331;-54
2021/12/17 14:32:46;;;;;;;;;5.75;5.25;;;;;22.24;42.12;103141.53;4996511;28;51105;-52